Terminal Aerodrome Forecast
Issued by NWS

Home | Current Version | Previous Version | Text Only | Print | Product List | Glossary On
Versions: 1 2 3 4 5 6 7 8 9 10 11 12 13 14 15 16 17 18 19 20 21
000
FTUS41 KPBZ 232359 AAA
TAFZZV
TAF AMD
KZZV 232359Z 2400/2424 18005KT P6SM BKN060
      TEMPO 2400/2401 6SM -TSRA BKN040CB
     FM240700 18006KT P6SM SCT060
     FM241600 18012G22KT P6SM SCT060=

USA.gov is the U.S. government's official web portal to all federal, state and local government web resources and services.